sensor_id;sensor_type;location;lat;lon;timestamp;pressure;altitude;pressure_sealevel;temperature;humidity
71476;BME280;59286;59.274;17.974;2023-05-29T00:01:05;101362.09;;;11.63;55.44
71476;BME280;59286;59.274;17.974;2023-05-29T00:03:34;101379.00;;;11.76;55.04
71476;BME280;59286;59.274;17.974;2023-05-29T00:06:02;101375.03;;;11.79;54.98
71476;BME280;59286;59.274;17.974;2023-05-29T00:08:27;101384.41;;;11.85;54.99
71476;BME280;59286;59.274;17.974;2023-05-29T00:10:53;101360.06;;;11.79;55.32
71476;BME280;59286;59.274;17.974;2023-05-29T00:13:18;101375.97;;;11.88;55.33
71476;BME280;59286;59.274;17.974;2023-05-29T00:15:43;101384.63;;;11.88;55.90
71476;BME280;59286;59.274;17.974;2023-05-29T00:18:09;101391.78;;;11.83;55.90
71476;BME280;59286;59.274;17.974;2023-05-29T00:20:34;101384.78;;;11.78;55.90
71476;BME280;59286;59.274;17.974;2023-05-29T00:23:00;101360.50;;;11.62;56.13
71476;BME280;59286;59.274;17.974;2023-05-29T00:25:27;101368.78;;;11.75;56.07
71476;BME280;59286;59.274;17.974;2023-05-29T00:27:52;101385.53;;;11.79;56.05
71476;BME280;59286;59.274;17.974;2023-05-29T00:30:18;101395.06;;;11.75;56.36
71476;BME280;59286;59.274;17.974;2023-05-29T00:32:43;101387.78;;;11.66;56.47
71476;BME280;59286;59.274;17.974;2023-05-29T00:35:08;101378.66;;;11.59;56.67
71476;BME280;59286;59.274;17.974;2023-05-29T00:37:34;101373.69;;;11.57;56.45
71476;BME280;59286;59.274;17.974;2023-05-29T00:39:59;101388.88;;;11.60;56.58
71476;BME280;59286;59.274;17.974;2023-05-29T00:42:25;101387.34;;;11.59;56.93
71476;BME280;59286;59.274;17.974;2023-05-29T00:44:50;101392.38;;;11.56;56.42
71476;BME280;59286;59.274;17.974;2023-05-29T00:47:16;101390.06;;;11.49;56.66
71476;BME280;59286;59.274;17.974;2023-05-29T00:49:42;101403.63;;;11.56;57.00
71476;BME280;59286;59.274;17.974;2023-05-29T00:52:09;101402.88;;;11.56;57.18
71476;BME280;59286;59.274;17.974;2023-05-29T00:54:35;101405.44;;;11.61;57.56
71476;BME280;59286;59.274;17.974;2023-05-29T00:57:01;101407.25;;;11.60;57.44
71476;BME280;59286;59.274;17.974;2023-05-29T00:59:32;101412.00;;;11.58;57.62
71476;BME280;59286;59.274;17.974;2023-05-29T01:01:59;101390.13;;;11.44;57.92
71476;BME280;59286;59.274;17.974;2023-05-29T01:04:26;101398.28;;;11.43;57.56
71476;BME280;59286;59.274;17.974;2023-05-29T01:06:52;101417.91;;;11.50;57.68
71476;BME280;59286;59.274;17.974;2023-05-29T01:09:18;101424.78;;;11.46;57.83
71476;BME280;59286;59.274;17.974;2023-05-29T01:12:03;101393.22;;;11.28;57.99
71476;BME280;59286;59.274;17.974;2023-05-29T01:14:40;101431.28;;;11.49;58.32
71476;BME280;59286;59.274;17.974;2023-05-29T01:22:35;101441.91;;;11.39;58.18
71476;BME280;59286;59.274;17.974;2023-05-29T01:25:18;101454.81;;;11.35;58.06
71476;BME280;59286;59.274;17.974;2023-05-29T01:27:46;101457.25;;;11.27;58.27
71476;BME280;59286;59.274;17.974;2023-05-29T01:30:14;101460.47;;;11.19;58.99
71476;BME280;59286;59.274;17.974;2023-05-29T01:32:40;101444.75;;;11.14;59.00
71476;BME280;59286;59.274;17.974;2023-05-29T01:35:06;101469.13;;;11.19;59.42
71476;BME280;59286;59.274;17.974;2023-05-29T01:37:32;101473.97;;;11.07;59.71
71476;BME280;59286;59.274;17.974;2023-05-29T01:39:57;101478.97;;;11.04;60.64
71476;BME280;59286;59.274;17.974;2023-05-29T01:42:23;101475.41;;;10.90;60.53
71476;BME280;59286;59.274;17.974;2023-05-29T01:44:49;101483.03;;;10.86;60.86
71476;BME280;59286;59.274;17.974;2023-05-29T01:47:15;101476.88;;;10.72;61.14
71476;BME280;59286;59.274;17.974;2023-05-29T01:49:41;101486.59;;;10.66;61.38
71476;BME280;59286;59.274;17.974;2023-05-29T01:52:07;101476.16;;;10.56;61.73
71476;BME280;59286;59.274;17.974;2023-05-29T01:54:32;101492.41;;;10.58;61.72
71476;BME280;59286;59.274;17.974;2023-05-29T01:56:59;101475.75;;;10.39;61.75
71476;BME280;59286;59.274;17.974;2023-05-29T01:59:26;101484.63;;;10.43;61.80
71476;BME280;59286;59.274;17.974;2023-05-29T02:01:51;101490.16;;;10.37;61.59
71476;BME280;59286;59.274;17.974;2023-05-29T02:04:16;101488.63;;;10.36;60.43
71476;BME280;59286;59.274;17.974;2023-05-29T02:06:42;101480.34;;;10.14;59.48
71476;BME280;59286;59.274;17.974;2023-05-29T02:09:07;101480.84;;;10.16;59.58
71476;BME280;59286;59.274;17.974;2023-05-29T02:11:33;101498.13;;;10.17;59.50
71476;BME280;59286;59.274;17.974;2023-05-29T02:13:58;101514.91;;;10.06;58.46
71476;BME280;59286;59.274;17.974;2023-05-29T02:16:27;101522.53;;;10.02;58.04
71476;BME280;59286;59.274;17.974;2023-05-29T02:18:52;101529.88;;;9.95;57.96
71476;BME280;59286;59.274;17.974;2023-05-29T02:21:18;101506.13;;;9.66;57.32
71476;BME280;59286;59.274;17.974;2023-05-29T02:23:43;101509.56;;;9.62;57.54
71476;BME280;59286;59.274;17.974;2023-05-29T02:26:09;101533.06;;;9.72;56.70
71476;BME280;59286;59.274;17.974;2023-05-29T02:28:35;101521.59;;;9.53;56.32
71476;BME280;59286;59.274;17.974;2023-05-29T02:31:02;101543.56;;;9.57;56.25
71476;BME280;59286;59.274;17.974;2023-05-29T02:33:27;101542.00;;;9.56;56.24
71476;BME280;59286;59.274;17.974;2023-05-29T02:35:52;101540.72;;;9.48;56.04
71476;BME280;59286;59.274;17.974;2023-05-29T02:38:18;101552.19;;;9.62;55.54
71476;BME280;59286;59.274;17.974;2023-05-29T02:40:44;101554.81;;;9.67;55.12
71476;BME280;59286;59.274;17.974;2023-05-29T02:43:12;101553.25;;;9.61;53.98
71476;BME280;59286;59.274;17.974;2023-05-29T02:45:38;101559.00;;;9.68;53.75
71476;BME280;59286;59.274;17.974;2023-05-29T02:48:03;101560.31;;;9.66;52.40
71476;BME280;59286;59.274;17.974;2023-05-29T02:50:28;101565.03;;;9.64;51.92
71476;BME280;59286;59.274;17.974;2023-05-29T02:52:54;101545.41;;;9.51;52.23
71476;BME280;59286;59.274;17.974;2023-05-29T02:55:19;101575.50;;;9.64;52.02
71476;BME280;59286;59.274;17.974;2023-05-29T02:57:45;101560.06;;;9.57;52.87
71476;BME280;59286;59.274;17.974;2023-05-29T03:00:10;101581.00;;;9.67;52.32
71476;BME280;59286;59.274;17.974;2023-05-29T03:02:36;101568.69;;;9.63;52.28
71476;BME280;59286;59.274;17.974;2023-05-29T03:05:02;101580.72;;;9.74;52.42
71476;BME280;59286;59.274;17.974;2023-05-29T03:07:27;101583.59;;;9.88;52.32
71476;BME280;59286;59.274;17.974;2023-05-29T03:09:54;101594.28;;;9.96;52.25
71476;BME280;59286;59.274;17.974;2023-05-29T03:12:20;101580.44;;;9.96;52.93
71476;BME280;59286;59.274;17.974;2023-05-29T03:14:46;101579.38;;;9.87;52.89
71476;BME280;59286;59.274;17.974;2023-05-29T03:17:12;101566.31;;;9.71;53.23
71476;BME280;59286;59.274;17.974;2023-05-29T03:19:37;101591.97;;;9.64;53.48
71476;BME280;59286;59.274;17.974;2023-05-29T03:22:03;101597.75;;;9.56;53.63
71476;BME280;59286;59.274;17.974;2023-05-29T03:24:29;101594.34;;;9.46;54.09
71476;BME280;59286;59.274;17.974;2023-05-29T03:26:54;101566.34;;;9.21;54.28
71476;BME280;59286;59.274;17.974;2023-05-29T03:29:21;101586.00;;;9.34;53.96
71476;BME280;59286;59.274;17.974;2023-05-29T03:31:46;101580.22;;;9.32;54.36
71476;BME280;59286;59.274;17.974;2023-05-29T03:34:12;101596.44;;;9.44;53.65
71476;BME280;59286;59.274;17.974;2023-05-29T03:36:38;101577.34;;;9.38;53.80
71476;BME280;59286;59.274;17.974;2023-05-29T03:39:03;101610.84;;;9.61;54.28
71476;BME280;59286;59.274;17.974;2023-05-29T03:41:29;101603.00;;;9.61;53.58
71476;BME280;59286;59.274;17.974;2023-05-29T03:43:54;101607.94;;;9.68;53.90
71476;BME280;59286;59.274;17.974;2023-05-29T03:46:19;101616.59;;;9.73;53.70
71476;BME280;59286;59.274;17.974;2023-05-29T03:48:45;101609.28;;;9.55;53.90
71476;BME280;59286;59.274;17.974;2023-05-29T03:51:10;101619.75;;;9.65;54.39
71476;BME280;59286;59.274;17.974;2023-05-29T03:53:36;101621.84;;;9.78;54.33
71476;BME280;59286;59.274;17.974;2023-05-29T03:56:01;101622.88;;;9.88;54.16
71476;BME280;59286;59.274;17.974;2023-05-29T03:58:26;101623.66;;;9.93;53.95
71476;BME280;59286;59.274;17.974;2023-05-29T04:00:52;101626.50;;;9.97;54.02
71476;BME280;59286;59.274;17.974;2023-05-29T04:03:17;101621.03;;;9.93;54.49
71476;BME280;59286;59.274;17.974;2023-05-29T04:05:42;101630.19;;;9.96;54.27
71476;BME280;59286;59.274;17.974;2023-05-29T04:08:08;101627.56;;;9.91;54.84
71476;BME280;59286;59.274;17.974;2023-05-29T04:10:34;101635.94;;;9.93;54.43
71476;BME280;59286;59.274;17.974;2023-05-29T04:13:00;101617.41;;;9.64;55.07
71476;BME280;59286;59.274;17.974;2023-05-29T04:15:26;101642.00;;;9.58;55.52
71476;BME280;59286;59.274;17.974;2023-05-29T04:17:52;101636.50;;;9.39;56.24
71476;BME280;59286;59.274;17.974;2023-05-29T04:20:17;101641.97;;;9.53;56.79
71476;BME280;59286;59.274;17.974;2023-05-29T04:22:42;101648.53;;;9.60;55.80
71476;BME280;59286;59.274;17.974;2023-05-29T04:25:08;101625.75;;;9.56;55.45
71476;BME280;59286;59.274;17.974;2023-05-29T04:27:33;101643.56;;;9.74;55.23
71476;BME280;59286;59.274;17.974;2023-05-29T04:30:06;101632.28;;;9.73;54.73
71476;BME280;59286;59.274;17.974;2023-05-29T04:32:31;101649.56;;;9.95;54.84
71476;BME280;59286;59.274;17.974;2023-05-29T04:34:58;101648.78;;;9.94;54.82
71476;BME280;59286;59.274;17.974;2023-05-29T04:37:27;101629.13;;;9.87;54.63
71476;BME280;59286;59.274;17.974;2023-05-29T04:39:55;101644.84;;;10.12;54.48
71476;BME280;59286;59.274;17.974;2023-05-29T04:42:20;101652.19;;;10.20;53.69
71476;BME280;59286;59.274;17.974;2023-05-29T04:44:47;101662.59;;;10.45;54.12
71476;BME280;59286;59.274;17.974;2023-05-29T04:47:14;101650.97;;;10.71;53.45
71476;BME280;59286;59.274;17.974;2023-05-29T04:49:41;101662.28;;;10.66;52.48
71476;BME280;59286;59.274;17.974;2023-05-29T04:52:06;101662.53;;;10.65;52.97
71476;BME280;59286;59.274;17.974;2023-05-29T04:54:32;101653.06;;;10.69;52.75
71476;BME280;59286;59.274;17.974;2023-05-29T04:56:59;101661.88;;;10.93;52.45
71476;BME280;59286;59.274;17.974;2023-05-29T04:59:24;101663.88;;;11.16;52.60
71476;BME280;59286;59.274;17.974;2023-05-29T05:01:51;101642.63;;;11.13;51.58
71476;BME280;59286;59.274;17.974;2023-05-29T05:04:17;101652.25;;;11.27;52.78
71476;BME280;59286;59.274;17.974;2023-05-29T05:06:42;101651.06;;;11.43;51.74
71476;BME280;59286;59.274;17.974;2023-05-29T05:09:09;101632.28;;;11.31;51.29
71476;BME280;59286;59.274;17.974;2023-05-29T05:11:35;101646.56;;;11.49;51.32
71476;BME280;59286;59.274;17.974;2023-05-29T05:14:00;101632.59;;;11.58;51.43
71476;BME280;59286;59.274;17.974;2023-05-29T05:16:26;101613.81;;;11.41;51.38
71476;BME280;59286;59.274;17.974;2023-05-29T05:18:51;101635.72;;;11.60;51.34
71476;BME280;59286;59.274;17.974;2023-05-29T05:21:17;101642.50;;;11.72;51.20
71476;BME280;59286;59.274;17.974;2023-05-29T05:23:42;101630.97;;;11.67;51.36
71476;BME280;59286;59.274;17.974;2023-05-29T05:26:07;101634.53;;;11.82;51.28
71476;BME280;59286;59.274;17.974;2023-05-29T05:28:32;101619.28;;;11.84;50.91
71476;BME280;59286;59.274;17.974;2023-05-29T05:30:59;101620.63;;;12.05;50.87
71476;BME280;59286;59.274;17.974;2023-05-29T05:33:24;101634.69;;;12.19;49.32
71476;BME280;59286;59.274;17.974;2023-05-29T05:35:50;101628.81;;;12.27;50.01
71476;BME280;59286;59.274;17.974;2023-05-29T05:38:16;101635.41;;;12.48;49.58
71476;BME280;59286;59.274;17.974;2023-05-29T05:40:42;101619.63;;;12.48;48.45
71476;BME280;59286;59.274;17.974;2023-05-29T05:43:10;101599.34;;;12.30;48.76
71476;BME280;59286;59.274;17.974;2023-05-29T05:45:35;101618.25;;;12.74;48.83
71476;BME280;59286;59.274;17.974;2023-05-29T05:48:01;101637.25;;;12.90;47.89
71476;BME280;59286;59.274;17.974;2023-05-29T05:50:26;101625.94;;;12.89;48.25
71476;BME280;59286;59.274;17.974;2023-05-29T05:52:52;101628.75;;;12.98;47.71
71476;BME280;59286;59.274;17.974;2023-05-29T05:55:17;101623.19;;;12.99;48.38
71476;BME280;59286;59.274;17.974;2023-05-29T05:57:43;101636.59;;;13.03;46.08
71476;BME280;59286;59.274;17.974;2023-05-29T06:00:08;101635.13;;;12.73;46.63
71476;BME280;59286;59.274;17.974;2023-05-29T06:02:38;101631.50;;;12.45;47.73
71476;BME280;59286;59.274;17.974;2023-05-29T06:05:06;101652.03;;;12.67;47.15
71476;BME280;59286;59.274;17.974;2023-05-29T06:07:32;101646.19;;;12.89;47.16
71476;BME280;59286;59.274;17.974;2023-05-29T06:09:57;101638.06;;;12.90;47.89
71476;BME280;59286;59.274;17.974;2023-05-29T06:12:23;101658.13;;;13.05;46.84
71476;BME280;59286;59.274;17.974;2023-05-29T06:14:49;101655.66;;;13.13;46.88
71476;BME280;59286;59.274;17.974;2023-05-29T06:17:14;101653.41;;;13.39;46.55
71476;BME280;59286;59.274;17.974;2023-05-29T06:19:40;101650.28;;;13.55;45.12
71476;BME280;59286;59.274;17.974;2023-05-29T06:22:05;101637.56;;;13.25;44.64
71476;BME280;59286;59.274;17.974;2023-05-29T06:24:31;101641.63;;;13.36;44.75
71476;BME280;59286;59.274;17.974;2023-05-29T06:26:56;101647.19;;;13.67;44.18
71476;BME280;59286;59.274;17.974;2023-05-29T06:29:21;101626.28;;;13.71;44.24
71476;BME280;59286;59.274;17.974;2023-05-29T06:31:46;101613.56;;;14.05;43.76
71476;BME280;59286;59.274;17.974;2023-05-29T06:34:12;101641.22;;;14.07;43.65
71476;BME280;59286;59.274;17.974;2023-05-29T06:36:37;101633.59;;;14.06;42.32
71476;BME280;59286;59.274;17.974;2023-05-29T06:39:03;101656.06;;;14.03;42.51
71476;BME280;59286;59.274;17.974;2023-05-29T06:41:28;101658.38;;;14.05;41.81
71476;BME280;59286;59.274;17.974;2023-05-29T06:43:54;101655.84;;;14.00;42.35
71476;BME280;59286;59.274;17.974;2023-05-29T06:46:19;101647.16;;;13.53;42.30
71476;BME280;59286;59.274;17.974;2023-05-29T06:48:45;101645.88;;;13.97;42.86
71476;BME280;59286;59.274;17.974;2023-05-29T06:51:10;101639.28;;;14.13;42.27
71476;BME280;59286;59.274;17.974;2023-05-29T06:53:40;101643.59;;;14.63;43.76
71476;BME280;59286;59.274;17.974;2023-05-29T06:56:06;101651.41;;;14.27;42.78
71476;BME280;59286;59.274;17.974;2023-05-29T06:58:33;101652.50;;;13.81;43.85
71476;BME280;59286;59.274;17.974;2023-05-29T07:00:59;101658.25;;;14.28;44.41
71476;BME280;59286;59.274;17.974;2023-05-29T07:03:28;101660.00;;;14.33;43.46
71476;BME280;59286;59.274;17.974;2023-05-29T07:05:54;101644.34;;;14.77;44.30
71476;BME280;59286;59.274;17.974;2023-05-29T07:08:20;101655.97;;;14.90;42.55
71476;BME280;59286;59.274;17.974;2023-05-29T07:10:45;101648.41;;;15.10;44.67
71476;BME280;59286;59.274;17.974;2023-05-29T07:13:15;101653.97;;;14.60;43.39
71476;BME280;59286;59.274;17.974;2023-05-29T07:15:41;101606.34;;;13.97;43.76
71476;BME280;59286;59.274;17.974;2023-05-29T07:18:06;101647.22;;;14.67;44.84
71476;BME280;59286;59.274;17.974;2023-05-29T07:20:32;101671.91;;;15.20;42.39
71476;BME280;59286;59.274;17.974;2023-05-29T07:22:57;101676.31;;;14.89;42.12
71476;BME280;59286;59.274;17.974;2023-05-29T07:25:22;101669.38;;;14.93;43.65
71476;BME280;59286;59.274;17.974;2023-05-29T07:27:48;101636.16;;;14.65;41.77
71476;BME280;59286;59.274;17.974;2023-05-29T07:30:13;101674.09;;;14.69;43.05
71476;BME280;59286;59.274;17.974;2023-05-29T07:32:39;101670.75;;;14.77;42.44
71476;BME280;59286;59.274;17.974;2023-05-29T07:35:04;101664.25;;;14.97;42.23
71476;BME280;59286;59.274;17.974;2023-05-29T07:37:30;101673.41;;;15.13;42.31
71476;BME280;59286;59.274;17.974;2023-05-29T07:39:56;101637.22;;;14.78;42.47
71476;BME280;59286;59.274;17.974;2023-05-29T07:42:22;101660.00;;;15.23;42.92
71476;BME280;59286;59.274;17.974;2023-05-29T07:44:47;101650.63;;;15.39;41.44
71476;BME280;59286;59.274;17.974;2023-05-29T07:47:13;101654.84;;;15.04;42.72
71476;BME280;59286;59.274;17.974;2023-05-29T07:49:42;101658.59;;;15.25;42.57
71476;BME280;59286;59.274;17.974;2023-05-29T07:52:07;101676.25;;;15.38;41.42
71476;BME280;59286;59.274;17.974;2023-05-29T07:54:32;101674.16;;;15.63;42.12
71476;BME280;59286;59.274;17.974;2023-05-29T07:57:01;101669.00;;;15.88;42.15
71476;BME280;59286;59.274;17.974;2023-05-29T07:59:35;101677.66;;;16.41;41.06
71476;BME280;59286;59.274;17.974;2023-05-29T08:02:00;101670.34;;;16.47;39.40
71476;BME280;59286;59.274;17.974;2023-05-29T08:04:28;101657.13;;;16.08;39.47
71476;BME280;59286;59.274;17.974;2023-05-29T08:06:53;101673.97;;;15.81;40.40
71476;BME280;59286;59.274;17.974;2023-05-29T08:09:18;101662.06;;;16.01;40.07
71476;BME280;59286;59.274;17.974;2023-05-29T08:11:44;101675.03;;;15.58;40.06
71476;BME280;59286;59.274;17.974;2023-05-29T08:14:12;101665.13;;;15.41;40.54
71476;BME280;59286;59.274;17.974;2023-05-29T08:16:37;101654.97;;;15.79;40.22
71476;BME280;59286;59.274;17.974;2023-05-29T08:19:03;101647.78;;;16.02;40.81
71476;BME280;59286;59.274;17.974;2023-05-29T08:21:29;101637.16;;;15.63;41.12
71476;BME280;59286;59.274;17.974;2023-05-29T08:23:55;101673.28;;;15.98;40.42
71476;BME280;59286;59.274;17.974;2023-05-29T08:26:20;101655.25;;;16.00;39.62
71476;BME280;59286;59.274;17.974;2023-05-29T08:28:47;101664.81;;;16.26;40.20
71476;BME280;59286;59.274;17.974;2023-05-29T08:31:12;101636.59;;;16.05;39.01
71476;BME280;59286;59.274;17.974;2023-05-29T08:33:37;101641.50;;;16.28;40.88
71476;BME280;59286;59.274;17.974;2023-05-29T08:36:03;101666.72;;;16.65;39.33
71476;BME280;59286;59.274;17.974;2023-05-29T08:38:28;101654.25;;;16.74;40.16
71476;BME280;59286;59.274;17.974;2023-05-29T08:40:56;101627.25;;;16.46;40.62
71476;BME280;59286;59.274;17.974;2023-05-29T08:43:23;101662.84;;;16.88;40.68
71476;BME280;59286;59.274;17.974;2023-05-29T08:45:53;101637.28;;;16.92;39.26
71476;BME280;59286;59.274;17.974;2023-05-29T08:48:19;101651.97;;;17.15;38.15
71476;BME280;59286;59.274;17.974;2023-05-29T08:50:48;101639.94;;;17.35;38.17
71476;BME280;59286;59.274;17.974;2023-05-29T08:53:14;101649.75;;;17.34;39.46
71476;BME280;59286;59.274;17.974;2023-05-29T08:55:44;101658.03;;;17.50;38.66
71476;BME280;59286;59.274;17.974;2023-05-29T08:58:11;101635.88;;;17.37;38.10
71476;BME280;59286;59.274;17.974;2023-05-29T09:00:36;101633.88;;;17.00;36.63
71476;BME280;59286;59.274;17.974;2023-05-29T09:03:02;101649.44;;;17.27;39.24
71476;BME280;59286;59.274;17.974;2023-05-29T09:05:28;101657.41;;;17.27;36.23
71476;BME280;59286;59.274;17.974;2023-05-29T09:07:55;101654.59;;;17.32;37.12
71476;BME280;59286;59.274;17.974;2023-05-29T09:10:21;101634.97;;;17.33;38.45
71476;BME280;59286;59.274;17.974;2023-05-29T09:12:47;101655.19;;;17.81;37.04
71476;BME280;59286;59.274;17.974;2023-05-29T09:15:23;101605.97;;;17.03;37.38
71476;BME280;59286;59.274;17.974;2023-05-29T09:17:52;101613.28;;;16.97;35.84
71476;BME280;59286;59.274;17.974;2023-05-29T09:20:19;101645.56;;;17.16;36.64
71476;BME280;59286;59.274;17.974;2023-05-29T09:23:08;101616.72;;;16.98;37.93
71476;BME280;59286;59.274;17.974;2023-05-29T09:25:39;101633.25;;;17.03;38.12
71476;BME280;59286;59.274;17.974;2023-05-29T09:28:06;101648.53;;;17.15;38.83
71476;BME280;59286;59.274;17.974;2023-05-29T09:30:46;101637.28;;;17.35;38.73
71476;BME280;59286;59.274;17.974;2023-05-29T09:33:14;101637.94;;;17.49;36.60
71476;BME280;59286;59.274;17.974;2023-05-29T09:35:43;101612.69;;;17.00;36.34
71476;BME280;59286;59.274;17.974;2023-05-29T09:38:11;101641.81;;;16.83;37.67
71476;BME280;59286;59.274;17.974;2023-05-29T09:40:38;101635.88;;;16.86;38.57
71476;BME280;59286;59.274;17.974;2023-05-29T09:43:05;101614.38;;;16.88;38.01
71476;BME280;59286;59.274;17.974;2023-05-29T09:45:37;101634.50;;;16.89;38.88
71476;BME280;59286;59.274;17.974;2023-05-29T09:48:02;101616.41;;;17.16;37.18
71476;BME280;59286;59.274;17.974;2023-05-29T09:50:28;101605.66;;;17.21;38.14
71476;BME280;59286;59.274;17.974;2023-05-29T09:52:56;101605.34;;;17.31;38.32
71476;BME280;59286;59.274;17.974;2023-05-29T09:55:23;101622.66;;;17.55;37.29
71476;BME280;59286;59.274;17.974;2023-05-29T09:57:53;101617.94;;;17.34;38.44
71476;BME280;59286;59.274;17.974;2023-05-29T10:00:19;101606.13;;;17.32;38.62
71476;BME280;59286;59.274;17.974;2023-05-29T10:02:45;101613.72;;;17.68;39.74
71476;BME280;59286;59.274;17.974;2023-05-29T10:05:11;101608.69;;;17.75;37.82
71476;BME280;59286;59.274;17.974;2023-05-29T10:07:40;101596.59;;;17.48;38.56
71476;BME280;59286;59.274;17.974;2023-05-29T10:10:09;101615.47;;;17.12;37.58
71476;BME280;59286;59.274;17.974;2023-05-29T10:12:38;101606.91;;;16.98;39.23
71476;BME280;59286;59.274;17.974;2023-05-29T10:15:07;101605.19;;;17.19;38.88
71476;BME280;59286;59.274;17.974;2023-05-29T10:17:37;101605.81;;;17.33;39.92
71476;BME280;59286;59.274;17.974;2023-05-29T10:20:05;101606.59;;;17.25;38.24
71476;BME280;59286;59.274;17.974;2023-05-29T10:22:32;101563.47;;;16.65;37.19
71476;BME280;59286;59.274;17.974;2023-05-29T10:24:59;101585.41;;;16.83;40.19
71476;BME280;59286;59.274;17.974;2023-05-29T10:27:26;101578.09;;;17.05;38.71
71476;BME280;59286;59.274;17.974;2023-05-29T10:36:03;101592.38;;;16.53;38.43
71476;BME280;59286;59.274;17.974;2023-05-29T10:38:30;101575.75;;;16.61;39.46
71476;BME280;59286;59.274;17.974;2023-05-29T10:40:56;101559.25;;;16.81;41.38
71476;BME280;59286;59.274;17.974;2023-05-29T10:43:41;101573.81;;;17.38;40.50
71476;BME280;59286;59.274;17.974;2023-05-29T10:46:09;101565.69;;;17.61;38.81
71476;BME280;59286;59.274;17.974;2023-05-29T10:48:39;101551.06;;;17.55;39.12
71476;BME280;59286;59.274;17.974;2023-05-29T10:51:06;101564.56;;;17.70;38.75
71476;BME280;59286;59.274;17.974;2023-05-29T10:53:33;101575.00;;;17.75;39.03
71476;BME280;59286;59.274;17.974;2023-05-29T10:55:59;101570.78;;;17.74;38.97
71476;BME280;59286;59.274;17.974;2023-05-29T10:58:26;101563.56;;;17.83;39.57
71476;BME280;59286;59.274;17.974;2023-05-29T11:00:54;101566.78;;;17.97;38.63
71476;BME280;59286;59.274;17.974;2023-05-29T11:03:23;101537.03;;;17.83;39.46
71476;BME280;59286;59.274;17.974;2023-05-29T11:08:34;101563.84;;;17.90;37.65
71476;BME280;59286;59.274;17.974;2023-05-29T11:11:01;101549.78;;;17.43;37.72
71476;BME280;59286;59.274;17.974;2023-05-29T11:13:32;101531.63;;;17.16;37.29
71476;BME280;59286;59.274;17.974;2023-05-29T11:16:20;101567.66;;;17.17;39.06
71476;BME280;59286;59.274;17.974;2023-05-29T11:18:47;101558.28;;;17.28;37.92
71476;BME280;59286;59.274;17.974;2023-05-29T11:24:06;101544.56;;;17.26;37.77
71476;BME280;59286;59.274;17.974;2023-05-29T11:26:32;101551.06;;;17.55;36.95
71476;BME280;59286;59.274;17.974;2023-05-29T11:29:04;101520.34;;;17.45;37.60
71476;BME280;59286;59.274;17.974;2023-05-29T11:31:33;101541.06;;;17.52;36.57
71476;BME280;59286;59.274;17.974;2023-05-29T11:34:00;101537.25;;;17.70;38.35
71476;BME280;59286;59.274;17.974;2023-05-29T11:36:29;101540.03;;;17.82;37.39
71476;BME280;59286;59.274;17.974;2023-05-29T11:38:55;101532.56;;;17.75;38.10
71476;BME280;59286;59.274;17.974;2023-05-29T11:41:21;101538.34;;;17.69;36.44
71476;BME280;59286;59.274;17.974;2023-05-29T11:44:01;101520.97;;;17.51;36.69
71476;BME280;59286;59.274;17.974;2023-05-29T11:46:27;101528.06;;;17.67;38.75
71476;BME280;59286;59.274;17.974;2023-05-29T11:48:56;101523.75;;;17.92;37.04
71476;BME280;59286;59.274;17.974;2023-05-29T11:51:21;101540.72;;;17.99;37.86
71476;BME280;59286;59.274;17.974;2023-05-29T11:53:48;101539.25;;;18.10;37.47
71476;BME280;59286;59.274;17.974;2023-05-29T11:56:14;101510.19;;;18.14;37.48
71476;BME280;59286;59.274;17.974;2023-05-29T11:58:39;101502.56;;;18.12;37.71
71476;BME280;59286;59.274;17.974;2023-05-29T12:01:06;101524.81;;;17.99;36.27
71476;BME280;59286;59.274;17.974;2023-05-29T12:03:42;101517.16;;;17.98;37.63
71476;BME280;59286;59.274;17.974;2023-05-29T12:06:08;101519.63;;;18.03;36.59
71476;BME280;59286;59.274;17.974;2023-05-29T12:08:35;101516.66;;;18.04;37.43
71476;BME280;59286;59.274;17.974;2023-05-29T12:11:00;101483.66;;;17.85;37.14
71476;BME280;59286;59.274;17.974;2023-05-29T12:13:26;101484.41;;;17.94;37.47
71476;BME280;59286;59.274;17.974;2023-05-29T12:15:54;101490.56;;;18.06;36.78
71476;BME280;59286;59.274;17.974;2023-05-29T12:18:21;101479.00;;;17.82;35.70
71476;BME280;59286;59.274;17.974;2023-05-29T12:20:46;101493.44;;;18.01;37.67
71476;BME280;59286;59.274;17.974;2023-05-29T12:23:12;101498.66;;;18.10;37.37
71476;BME280;59286;59.274;17.974;2023-05-29T12:25:37;101492.91;;;18.08;36.78
71476;BME280;59286;59.274;17.974;2023-05-29T12:28:03;101490.91;;;18.25;36.66
71476;BME280;59286;59.274;17.974;2023-05-29T12:30:29;101492.38;;;18.35;36.24
71476;BME280;59286;59.274;17.974;2023-05-29T12:32:55;101478.09;;;18.07;36.43
71476;BME280;59286;59.274;17.974;2023-05-29T12:35:22;101496.25;;;17.96;37.21
71476;BME280;59286;59.274;17.974;2023-05-29T12:37:54;101497.94;;;18.01;37.59
71476;BME280;59286;59.274;17.974;2023-05-29T12:40:26;101488.88;;;18.02;38.26
71476;BME280;59286;59.274;17.974;2023-05-29T12:43:00;101479.63;;;18.08;37.97
71476;BME280;59286;59.274;17.974;2023-05-29T12:45:27;101483.25;;;17.74;35.76
71476;BME280;59286;59.274;17.974;2023-05-29T12:47:54;101460.69;;;17.30;37.05
71476;BME280;59286;59.274;17.974;2023-05-29T12:50:24;101456.13;;;17.39;39.28
71476;BME280;59286;59.274;17.974;2023-05-29T12:52:58;101470.34;;;17.64;37.83
71476;BME280;59286;59.274;17.974;2023-05-29T12:55:24;101463.63;;;17.75;37.47
71476;BME280;59286;59.274;17.974;2023-05-29T12:57:50;101452.38;;;17.70;40.06